If you wish to contribute or participate in the discussions about articles you are invited to join SKYbrary as a registered user

 Actions

Anatom Airport

From SKYbrary Wiki

NVVA
Airport
ICAO: NVVA – IATA: AUY
Summary
Name Anatom Airport
Region Asia and Pacific
Territory Vanuatu VU.gif
Location Inyeug, Tafea province
Serving Aneityum
Elevation 2.134 m
7 ft2.134 m
Coordinates 20° 14' 57.01" S, 169° 46' 17.00" E
Runways
Designator Length Width Surface ROPS


METAR
Observation NVVA 291800Z 00000KT 9999 SCT025 17/17 Q1013
Station Anelghowhat Airport
Date/Time 29 November 2020 18:00:00
Wind direction
Wind speed 00 kts
Lowest cloud amount scattered clouds
Temperature 17°C
Dew point 17°C
Humidity 100%
QNH 1013 hPa
Weather condition n/a

Anatom Airport, also known as Aneityum Airport, is an airfield serving the island of Aneityum, in the Taféa province in Vanuatu. The airfield is actually located on the smaller Inyeug island.

Climatology

Tropical Rainforest climate (Köppen climate classification Af)

Maps

Terrain

Loading map...

Airport Layout

Loading map...


Accidents & Serious Incidents at or in vicinity of NVVA

None on SKYbrary